Bass, Arkansas
Current Conditions -  °F | °C
As of 12:53 AM on Friday 31 Oct 2014 (Local Time) from KHRO Reporting Station
Clear Clear  
Wind Chill: 52°   Ceiling: Unl
Heat Index: 52°   Visibility: 10mi
Dew Point: 40°   Wind: 7mph
Humidity: 63%   Direction: 300°WNW
Pressure: 30.1"   Gusts: NA
Location:  35.9°N, 93°W
Report Text: KHRO 310553Z AUTO 30006KT 10SM CLR 11/04 A3010 RMK AO2 SLP187 T01110044 10156 20111 402110039 51007
Loading
Personal Weather Stations






























Interactive Weather Map
Tropical Storm Tracking
New forecast layout! Learn more

10-Day Weather Forecast

Advertisements
Track Severe Weather on mobile